createdAt,value
2022-09-23T00:01:05.459Z,69.83
2022-09-23T00:03:33.156Z,69.02
2022-09-23T00:06:01.831Z,69.24
2022-09-23T00:08:29.491Z,69.43
2022-09-23T00:10:56.592Z,69.02
2022-09-23T00:13:24.599Z,69.05
2022-09-23T00:15:51.856Z,69.16
2022-09-23T00:18:21.105Z,68.75
2022-09-23T00:20:48.146Z,68.92
2022-09-23T00:23:14.785Z,68.92
2022-09-23T00:25:41.273Z,69.15
2022-09-23T00:28:07.811Z,68.55
2022-09-23T00:30:34.573Z,68.50
2022-09-23T00:33:02.172Z,68.74
2022-09-23T00:35:28.782Z,69.22
2022-09-23T00:37:56.194Z,68.99
2022-09-23T00:40:22.663Z,69.31
2022-09-23T00:42:51.215Z,69.59
2022-09-23T00:45:18.719Z,69.56
2022-09-23T00:47:53.361Z,69.92
2022-09-23T00:50:36.431Z,70.61
2022-09-23T00:53:10.645Z,69.99
2022-09-23T00:55:43.896Z,69.64
2022-09-23T00:58:14.879Z,69.91
2022-09-23T01:00:42.864Z,69.58
2022-09-23T01:03:10.215Z,69.26
2022-09-23T01:05:36.842Z,69.37
2022-09-23T01:08:05.055Z,69.31
2022-09-23T01:11:09.455Z,70.47
2022-09-23T01:13:52.910Z,70.24
2022-09-23T01:16:34.069Z,70.87
2022-09-23T01:19:19.536Z,69.02
2022-09-23T01:22:23.735Z,70.40
2022-09-23T01:25:21.241Z,71.17
2022-09-23T01:28:12.672Z,70.97
2022-09-23T01:31:05.124Z,71.41
2022-09-23T01:33:53.170Z,70.77
2022-09-23T01:36:37.149Z,71.55
2022-09-23T01:39:30.734Z,71.00
2022-09-23T01:42:00.143Z,70.36
2022-09-23T01:44:48.727Z,71.93
2022-09-23T01:47:23.184Z,71.05
2022-09-23T01:50:30.011Z,70.25
2022-09-23T01:53:02.425Z,70.60
2022-09-23T01:55:34.136Z,70.79
2022-09-23T01:58:15.781Z,71.11
2022-09-23T02:00:56.837Z,71.38
2022-09-23T02:03:35.407Z,70.69
2022-09-23T02:06:07.924Z,71.04
2022-09-23T02:08:56.632Z,70.88
2022-09-23T02:11:23.579Z,71.39
2022-09-23T02:14:07.093Z,72.88
2022-09-23T02:16:47.570Z,73.18
2022-09-23T02:19:40.375Z,72.00
2022-09-23T02:22:23.192Z,71.95
2022-09-23T02:24:49.734Z,71.21
2022-09-23T02:27:30.345Z,71.91
2022-09-23T02:30:18.988Z,72.51
2022-09-23T02:33:07.866Z,71.86
2022-09-23T02:35:37.294Z,71.11
2022-09-23T02:38:38.974Z,72.19
2022-09-23T02:41:11.629Z,70.97
2022-09-23T02:43:59.667Z,71.51
2022-09-23T02:46:29.992Z,70.50
2022-09-23T02:49:14.068Z,71.48
2022-09-23T02:51:41.451Z,70.94
2022-09-23T02:54:14.578Z,70.92
2022-09-23T02:56:41.928Z,70.63
2022-09-23T02:59:09.616Z,71.22
2022-09-23T03:01:56.681Z,71.88
2022-09-23T03:04:35.233Z,72.53
2022-09-23T03:07:07.562Z,71.11
2022-09-23T03:09:48.361Z,71.86
2022-09-23T03:12:37.748Z,73.20
2022-09-23T03:15:26.489Z,72.98
2022-09-23T03:18:08.221Z,72.05
2022-09-23T03:20:49.503Z,72.41
2022-09-23T03:23:19.912Z,71.36
2022-09-23T03:25:49.740Z,71.98
2022-09-23T03:28:20.267Z,71.38
2022-09-23T03:30:47.864Z,71.42
2022-09-23T03:33:16.756Z,71.99
2022-09-23T03:36:10.856Z,72.20
2022-09-23T03:38:43.516Z,71.84
2022-09-23T03:41:16.925Z,71.38
2022-09-23T03:43:45.589Z,72.05
2022-09-23T03:46:12.965Z,71.07
2022-09-23T03:48:40.730Z,71.64
2022-09-23T03:51:21.982Z,72.29
2022-09-23T03:53:48.429Z,71.69
2022-09-23T03:56:15.231Z,71.11
2022-09-23T03:58:41.760Z,71.54
2022-09-23T04:01:08.489Z,71.72
2022-09-23T04:03:35.059Z,71.63
2022-09-23T04:06:01.557Z,71.91
2022-09-23T04:08:27.999Z,71.67
2022-09-23T04:10:59.576Z,72.36
2022-09-23T04:13:26.139Z,71.31
2022-09-23T04:15:52.776Z,72.27
2022-09-23T04:18:19.443Z,72.10
2022-09-23T04:20:46.323Z,71.31
2022-09-23T04:23:13.010Z,71.86
2022-09-23T04:25:47.794Z,70.93
2022-09-23T04:28:15.406Z,71.71
2022-09-23T04:30:43.745Z,71.80
2022-09-23T04:33:13.867Z,72.34
2022-09-23T04:35:42.894Z,71.45
2022-09-23T04:38:12.807Z,71.53
2022-09-23T04:40:40.263Z,71.30
2022-09-23T04:43:10.556Z,72.20
2022-09-23T04:45:39.518Z,72.00
2022-09-23T04:48:05.977Z,72.15
2022-09-23T04:50:33.924Z,71.95
2022-09-23T04:53:00.512Z,72.05
2022-09-23T04:55:27.291Z,72.39
2022-09-23T04:57:53.916Z,71.80
2022-09-23T05:00:20.820Z,72.64
2022-09-23T05:02:49.319Z,72.28
2022-09-23T05:05:20.221Z,72.57
2022-09-23T05:07:51.165Z,71.92
2022-09-23T05:10:17.849Z,72.32
2022-09-23T05:12:44.477Z,72.19
2022-09-23T05:17:37.628Z,72.50
2022-09-23T05:20:04.965Z,72.46
2022-09-23T05:22:31.482Z,72.04
2022-09-23T05:24:59.861Z,72.40
2022-09-23T05:27:26.474Z,72.66
2022-09-23T05:29:53.096Z,72.60
2022-09-23T05:32:20.087Z,72.37
2022-09-23T05:34:46.827Z,72.37
2022-09-23T05:37:13.561Z,72.36
2022-09-23T05:39:40.047Z,73.24
2022-09-23T05:42:06.896Z,72.71
2022-09-23T05:44:33.380Z,72.97
2022-09-23T05:47:00.030Z,72.73
2022-09-23T05:49:48.197Z,72.67
2022-09-23T05:52:13.244Z,73.08
2022-09-23T05:54:40.423Z,73.44
2022-09-23T05:57:06.974Z,73.73
2022-09-23T05:59:33.693Z,74.00
2022-09-23T06:02:00.756Z,73.19
2022-09-23T06:04:27.630Z,73.39
2022-09-23T06:06:54.087Z,73.17
2022-09-23T06:09:20.567Z,73.38
2022-09-23T06:11:47.381Z,73.76
2022-09-23T06:14:14.790Z,73.74
2022-09-23T06:16:41.412Z,73.65
2022-09-23T06:19:08.069Z,73.98
2022-09-23T06:21:37.237Z,73.66
2022-09-23T06:24:04.932Z,73.57
2022-09-23T06:26:34.673Z,73.58
2022-09-23T06:29:02.803Z,74.21
2022-09-23T06:31:30.194Z,73.90
2022-09-23T06:34:07.907Z,74.18
2022-09-23T06:36:43.473Z,74.34
2022-09-23T06:39:11.551Z,74.53
2022-09-23T06:41:38.387Z,74.64
2022-09-23T06:44:05.155Z,74.28
2022-09-23T06:46:31.880Z,74.76
2022-09-23T06:48:58.565Z,74.39
2022-09-23T06:51:25.458Z,74.87
2022-09-23T06:53:52.550Z,75.77
2022-09-23T06:56:21.030Z,75.96
2022-09-23T06:58:47.752Z,75.99
2022-09-23T07:01:16.274Z,75.99
2022-09-23T07:03:44.385Z,75.99
2022-09-23T07:06:11.473Z,75.37
2022-09-23T07:08:38.084Z,76.31
2022-09-23T07:11:06.672Z,75.96
2022-09-23T07:13:33.753Z,75.89
2022-09-23T07:16:02.201Z,76.22
2022-09-23T07:18:36.215Z,76.69
2022-09-23T07:21:09.023Z,76.35
2022-09-23T07:23:37.749Z,76.49
2022-09-23T07:26:05.141Z,76.74
2022-09-23T07:28:32.202Z,76.10
2022-09-23T07:31:07.954Z,76.63
2022-09-23T07:33:37.034Z,76.58
2022-09-23T07:36:08.228Z,76.37
2022-09-23T07:38:35.289Z,76.56
2022-09-23T07:41:10.990Z,76.91
2022-09-23T07:43:40.823Z,76.69
2022-09-23T07:46:11.418Z,76.75
2022-09-23T07:48:41.585Z,76.77
2022-09-23T07:51:12.141Z,76.98
2022-09-23T07:53:39.260Z,76.84
2022-09-23T07:56:06.656Z,76.87
2022-09-23T07:58:35.032Z,76.45
2022-09-23T08:01:06.751Z,76.89
2022-09-23T08:03:33.409Z,76.94
2022-09-23T08:06:12.017Z,76.97
2022-09-23T08:08:40.735Z,76.40
2022-09-23T08:11:10.008Z,76.66
2022-09-23T08:13:37.340Z,76.78
2022-09-23T08:16:04.693Z,76.83
2022-09-23T08:18:31.261Z,76.75
2022-09-23T08:21:03.769Z,76.95
2022-09-23T08:23:33.581Z,77.18
2022-09-23T08:26:02.856Z,76.60
2022-09-23T08:28:30.009Z,77.26
2022-09-23T08:30:56.562Z,76.56
2022-09-23T08:33:24.294Z,76.98
2022-09-23T08:35:51.542Z,76.53
2022-09-23T08:38:19.306Z,76.15
2022-09-23T08:40:49.470Z,76.31
2022-09-23T08:43:33.984Z,75.32
2022-09-23T08:46:04.611Z,76.52
2022-09-23T08:48:36.988Z,75.22
2022-09-23T08:51:12.709Z,74.71
2022-09-23T08:53:39.936Z,76.12
2022-09-23T08:56:15.406Z,75.57
2022-09-23T08:59:00.157Z,74.68
2022-09-23T09:01:45.930Z,73.85
2022-09-23T09:04:24.188Z,73.97
2022-09-23T09:07:12.312Z,74.44
2022-09-23T09:09:57.282Z,73.72
2022-09-23T09:12:36.076Z,73.96
2022-09-23T09:15:07.412Z,74.81
2022-09-23T09:17:51.737Z,73.46
2022-09-23T09:20:35.170Z,73.75
2022-09-23T09:23:20.125Z,73.31
2022-09-23T09:25:50.955Z,73.39
2022-09-23T09:28:42.415Z,72.23
2022-09-23T09:31:12.203Z,73.29
2022-09-23T09:33:47.291Z,73.51
2022-09-23T09:36:40.452Z,72.40
2022-09-23T09:39:12.331Z,72.67
2022-09-23T09:41:41.867Z,73.07
2022-09-23T09:44:23.473Z,71.22
2022-09-23T09:47:07.804Z,71.28
2022-09-23T09:50:00.749Z,69.49
2022-09-23T09:52:29.748Z,72.58
2022-09-23T09:55:17.708Z,71.93
2022-09-23T09:57:49.279Z,70.49
2022-09-23T10:00:21.845Z,70.39
2022-09-23T10:03:01.540Z,70.63
2022-09-23T10:05:46.833Z,67.97
2022-09-23T10:08:22.304Z,69.61
2022-09-23T10:10:55.550Z,70.40
2022-09-23T10:13:24.503Z,70.47
2022-09-23T10:15:54.813Z,70.02
2022-09-23T10:18:31.832Z,68.10
2022-09-23T10:21:14.983Z,69.00
2022-09-23T10:23:44.040Z,68.94
2022-09-23T10:26:12.324Z,69.11
2022-09-23T10:28:52.259Z,66.74
2022-09-23T10:31:30.801Z,66.21
2022-09-23T10:34:02.605Z,67.45
2022-09-23T10:36:31.505Z,66.51
2022-09-23T10:39:21.102Z,68.12
2022-09-23T10:42:22.349Z,67.15
2022-09-23T10:45:19.727Z,66.54
2022-09-23T10:48:08.852Z,66.06
2022-09-23T10:50:48.619Z,64.79
2022-09-23T10:53:19.487Z,64.98
2022-09-23T10:56:10.957Z,65.53
2022-09-23T10:59:03.123Z,64.24
2022-09-23T11:01:39.585Z,65.08
2022-09-23T11:04:35.827Z,64.75
2022-09-23T11:07:18.300Z,63.99
2022-09-23T11:09:47.621Z,64.30
2022-09-23T11:12:28.117Z,64.21
2022-09-23T11:15:03.724Z,63.95
2022-09-23T11:17:45.074Z,63.68
2022-09-23T11:20:36.050Z,62.83
2022-09-23T11:23:30.046Z,63.16
2022-09-23T11:26:12.759Z,63.28
2022-09-23T11:29:04.321Z,62.80
2022-09-23T11:31:32.564Z,61.38
2022-09-23T11:34:20.560Z,61.70
2022-09-23T11:36:54.391Z,61.95
2022-09-23T11:39:26.662Z,61.92
2022-09-23T11:41:56.876Z,61.88
2022-09-23T11:44:37.544Z,61.43
2022-09-23T11:47:09.149Z,62.12
2022-09-23T11:49:41.180Z,61.95
2022-09-23T11:52:21.129Z,62.12
2022-09-23T11:55:22.055Z,61.66
2022-09-23T11:57:53.111Z,61.77
2022-09-23T12:00:34.211Z,60.92
2022-09-23T12:03:19.314Z,58.15
2022-09-23T12:05:59.843Z,60.73
2022-09-23T12:08:31.014Z,60.29
2022-09-23T12:11:06.706Z,60.16
2022-09-23T12:14:07.553Z,59.96
2022-09-23T12:16:42.763Z,59.59
2022-09-23T12:19:47.423Z,57.72
2022-09-23T12:22:40.844Z,59.49
2022-09-23T12:25:37.226Z,59.12
2022-09-23T12:28:12.329Z,58.94
2022-09-23T12:30:41.126Z,59.22
2022-09-23T12:33:24.588Z,58.62
2022-09-23T12:35:54.021Z,58.56
2022-09-23T12:38:35.227Z,55.97
2022-09-23T12:41:09.112Z,57.99
2022-09-23T12:43:35.962Z,57.47
2022-09-23T12:46:29.731Z,56.93
2022-09-23T12:48:57.978Z,57.06
2022-09-23T12:51:26.535Z,56.87
2022-09-23T12:54:05.285Z,56.88
2022-09-23T12:56:34.547Z,56.65
2022-09-23T12:59:17.294Z,57.00
2022-09-23T13:01:44.681Z,56.71
2022-09-23T13:04:52.051Z,56.51
2022-09-23T13:07:25.813Z,56.18
2022-09-23T13:09:58.282Z,55.74
2022-09-23T13:12:31.156Z,55.37
2022-09-23T13:15:03.476Z,56.14
2022-09-23T13:17:37.061Z,55.88
2022-09-23T13:20:22.295Z,54.78
2022-09-23T13:22:48.768Z,55.93
2022-09-23T13:25:27.007Z,55.16
2022-09-23T13:28:00.703Z,56.03
2022-09-23T13:30:27.866Z,55.80
2022-09-23T13:33:10.929Z,55.13
2022-09-23T13:35:41.868Z,55.56
2022-09-23T13:38:18.649Z,55.53
2022-09-23T13:40:45.393Z,55.50
2022-09-23T13:43:23.641Z,54.63
2022-09-23T13:45:50.447Z,55.50
2022-09-23T13:48:18.502Z,55.68
2022-09-23T13:50:50.878Z,55.63
2022-09-23T13:53:25.402Z,55.20
2022-09-23T13:56:12.067Z,55.96
2022-09-23T13:58:39.301Z,55.72
2022-09-23T14:01:34.822Z,55.72
2022-09-23T14:04:05.923Z,55.48
2022-09-23T14:06:41.217Z,55.51
2022-09-23T14:09:09.408Z,55.30
2022-09-23T14:11:36.017Z,55.30
2022-09-23T14:14:07.667Z,55.19
2022-09-23T14:16:41.265Z,55.40
2022-09-23T14:19:17.051Z,55.60
2022-09-23T14:21:43.778Z,55.26
2022-09-23T14:24:10.286Z,55.27
2022-09-23T14:26:38.482Z,55.29
2022-09-23T14:29:06.712Z,54.88
2022-09-23T14:31:33.590Z,54.81
2022-09-23T14:34:00.415Z,54.51
2022-09-23T14:36:45.929Z,54.27
2022-09-23T14:39:12.703Z,54.53
2022-09-23T14:41:46.685Z,54.22
2022-09-23T14:44:22.943Z,54.60
2022-09-23T14:46:57.905Z,54.74
2022-09-23T14:49:25.258Z,54.96
2022-09-23T14:51:59.766Z,54.96
2022-09-23T14:54:37.481Z,55.23
2022-09-23T14:57:24.055Z,55.30
2022-09-23T15:00:01.017Z,55.36
2022-09-23T15:02:38.068Z,55.61
2022-09-23T15:05:15.626Z,55.57
2022-09-23T15:07:44.347Z,55.70
2022-09-23T15:10:19.978Z,56.02
2022-09-23T15:12:51.831Z,55.95
2022-09-23T15:15:24.034Z,55.94
2022-09-23T15:17:50.802Z,55.95
2022-09-23T15:20:25.665Z,56.54
2022-09-23T15:22:55.174Z,56.29
2022-09-23T15:25:39.619Z,56.48
2022-09-23T15:28:12.308Z,56.51
2022-09-23T15:30:39.409Z,56.76
2022-09-23T15:33:06.879Z,56.84
2022-09-23T15:35:33.549Z,57.13
2022-09-23T15:38:02.305Z,57.54
2022-09-23T15:40:34.310Z,57.66
2022-09-23T15:43:07.524Z,57.65
2022-09-23T15:45:40.857Z,57.84
2022-09-23T15:48:13.726Z,58.04
2022-09-23T15:50:41.389Z,58.09
2022-09-23T15:53:10.229Z,58.04
2022-09-23T15:55:36.792Z,58.52
2022-09-23T15:58:03.768Z,58.54
2022-09-23T16:00:30.786Z,58.46
2022-09-23T16:02:57.289Z,58.79
2022-09-23T16:05:36.252Z,60.09
2022-09-23T16:08:09.027Z,59.40
2022-09-23T16:10:37.266Z,59.64
2022-09-23T16:13:07.117Z,59.90
2022-09-23T16:15:33.879Z,59.61
2022-09-23T16:18:00.910Z,60.44
2022-09-23T16:20:29.747Z,60.75
2022-09-23T16:23:02.214Z,61.17
2022-09-23T16:25:31.162Z,61.76
2022-09-23T16:27:58.602Z,62.12
2022-09-23T16:30:30.911Z,62.31
2022-09-23T16:33:02.351Z,62.92
2022-09-23T16:35:33.702Z,64.25
2022-09-23T16:38:00.483Z,63.81
2022-09-23T16:40:27.339Z,64.08
2022-09-23T16:42:56.254Z,65.57
2022-09-23T16:45:23.293Z,65.33
2022-09-23T16:47:52.116Z,65.73
2022-09-23T16:50:22.772Z,65.27
2022-09-23T16:52:52.146Z,65.25
2022-09-23T16:55:18.834Z,65.06
2022-09-23T16:57:45.413Z,65.33
2022-09-23T17:00:34.088Z,66.22
2022-09-23T17:03:20.251Z,66.49
2022-09-23T17:05:47.308Z,66.59
2022-09-23T17:08:15.348Z,66.36
2022-09-23T17:10:44.087Z,66.44
2022-09-23T17:13:12.259Z,66.67
2022-09-23T17:15:40.267Z,66.98
2022-09-23T17:18:07.930Z,66.47
2022-09-23T17:20:35.311Z,66.70
2022-09-23T17:23:05.246Z,67.06
2022-09-23T17:25:34.352Z,67.67
2022-09-23T17:28:01.372Z,67.60
2022-09-23T17:30:29.017Z,67.74
2022-09-23T17:32:55.493Z,67.93
2022-09-23T17:35:21.995Z,68.63
2022-09-23T17:37:48.704Z,68.08
2022-09-23T17:40:15.363Z,68.64
2022-09-23T17:42:42.211Z,68.36
2022-09-23T17:45:12.401Z,69.44
2022-09-23T17:47:41.882Z,68.94
2022-09-23T17:50:08.915Z,69.70
2022-09-23T17:52:35.484Z,69.61
2022-09-23T17:55:02.328Z,70.29
2022-09-23T17:57:28.912Z,70.10
2022-09-23T17:59:56.059Z,69.55
2022-09-23T18:02:22.791Z,70.01
2022-09-23T18:04:49.874Z,69.40
2022-09-23T18:07:16.657Z,69.85
2022-09-23T18:09:43.532Z,70.13
2022-09-23T18:12:10.205Z,70.36
2022-09-23T18:14:36.653Z,70.12
2022-09-23T18:17:03.141Z,70.70
2022-09-23T18:19:29.623Z,71.17
2022-09-23T18:21:57.167Z,71.17
2022-09-23T18:24:33.358Z,70.74
2022-09-23T18:27:00.862Z,70.67
2022-09-23T18:29:27.491Z,71.30
2022-09-23T18:31:54.115Z,71.20
2022-09-23T18:34:21.059Z,71.25
2022-09-23T18:36:47.548Z,71.78
2022-09-23T18:39:14.106Z,71.76
2022-09-23T18:41:41.209Z,71.89
2022-09-23T18:44:08.394Z,71.99
2022-09-23T18:46:35.550Z,72.00
2022-09-23T18:49:20.623Z,72.41
2022-09-23T18:51:54.268Z,72.35
2022-09-23T18:54:21.981Z,72.75
2022-09-23T18:56:49.417Z,72.87
2022-09-23T18:59:19.564Z,72.87
2022-09-23T19:01:48.291Z,72.87
2022-09-23T19:04:17.520Z,73.66
2022-09-23T19:06:44.265Z,73.00
2022-09-23T19:09:12.062Z,72.83
2022-09-23T19:11:39.140Z,73.17
2022-09-23T19:14:09.165Z,73.20
2022-09-23T19:16:37.845Z,73.43
2022-09-23T19:19:05.758Z,73.48
2022-09-23T19:21:33.541Z,73.35
2022-09-23T19:24:03.573Z,73.83
2022-09-23T19:26:33.964Z,74.93
2022-09-23T19:29:02.339Z,74.14
2022-09-23T19:31:36.126Z,74.37
2022-09-23T19:34:10.177Z,74.78
2022-09-23T19:36:38.813Z,74.76
2022-09-23T19:39:08.607Z,75.04
2022-09-23T19:41:36.407Z,74.73
2022-09-23T19:44:03.801Z,75.42
2022-09-23T19:46:33.898Z,74.96
2022-09-23T19:49:00.699Z,74.89
2022-09-23T19:51:28.223Z,75.17
2022-09-23T19:53:54.836Z,75.76
2022-09-23T19:56:21.517Z,75.20
2022-09-23T19:58:52.241Z,75.26
2022-09-23T20:01:19.256Z,75.59
2022-09-23T20:03:47.182Z,75.83
2022-09-23T20:06:14.849Z,76.07
2022-09-23T20:08:41.633Z,75.78
2022-09-23T20:11:15.377Z,75.88
2022-09-23T20:13:44.249Z,76.77
2022-09-23T20:16:13.644Z,76.48
2022-09-23T20:18:41.429Z,76.32
2022-09-23T20:21:10.892Z,76.89
2022-09-23T20:23:37.702Z,76.43
2022-09-23T20:26:24.736Z,77.03
2022-09-23T20:28:52.006Z,76.53
2022-09-23T20:31:21.052Z,76.96
2022-09-23T20:33:57.948Z,76.18
2022-09-23T20:36:29.772Z,76.35
2022-09-23T20:39:00.238Z,76.30
2022-09-23T20:41:27.975Z,76.58
2022-09-23T20:43:55.941Z,76.69
2022-09-23T20:46:25.942Z,76.89
2022-09-23T20:48:54.091Z,76.71
2022-09-23T20:51:20.820Z,76.15
2022-09-23T20:53:52.775Z,77.70
2022-09-23T20:56:22.080Z,76.71
2022-09-23T20:58:50.571Z,76.84
2022-09-23T21:01:19.588Z,76.75
2022-09-23T21:03:48.803Z,76.95
2022-09-23T21:06:18.682Z,77.56
2022-09-23T21:08:45.927Z,77.26
2022-09-23T21:11:15.194Z,77.40
2022-09-23T21:13:47.543Z,77.47
2022-09-23T21:16:16.134Z,77.39
2022-09-23T21:18:43.528Z,77.34
2022-09-23T21:21:12.309Z,77.45
2022-09-23T21:23:40.438Z,77.50
2022-09-23T21:26:09.580Z,78.01
2022-09-23T21:28:38.567Z,78.07
2022-09-23T21:31:08.693Z,78.50
2022-09-23T21:33:38.318Z,78.39
2022-09-23T21:36:09.309Z,78.14
2022-09-23T21:38:36.616Z,78.22
2022-09-23T21:41:05.617Z,78.46
2022-09-23T21:43:34.231Z,78.26
2022-09-23T21:46:03.262Z,78.25
2022-09-23T21:48:35.612Z,78.46
2022-09-23T21:51:08.274Z,78.35
2022-09-23T21:53:39.180Z,78.35
2022-09-23T21:56:15.698Z,78.49
2022-09-23T21:58:44.851Z,78.48
2022-09-23T22:01:17.719Z,79.06
2022-09-23T22:03:48.833Z,78.42
2022-09-23T22:06:21.718Z,78.97
2022-09-23T22:08:50.588Z,78.62
2022-09-23T22:11:38.203Z,78.17
2022-09-23T22:14:07.480Z,78.54
2022-09-23T22:16:34.129Z,78.50
2022-09-23T22:19:01.781Z,78.73
2022-09-23T22:21:30.304Z,78.75
2022-09-23T22:24:03.574Z,79.14
2022-09-23T22:26:36.083Z,78.38
2022-09-23T22:29:22.095Z,78.66
2022-09-23T22:32:06.968Z,78.77
2022-09-23T22:34:50.623Z,78.79
2022-09-23T22:37:21.825Z,79.20
2022-09-23T22:39:48.720Z,79.01
2022-09-23T22:42:15.472Z,79.05
2022-09-23T22:44:42.386Z,79.26
2022-09-23T22:47:10.456Z,79.19
2022-09-23T22:49:37.434Z,79.11
2022-09-23T22:52:07.955Z,79.73
2022-09-23T22:54:35.550Z,79.39
2022-09-23T22:57:05.364Z,79.60
2022-09-23T22:59:32.168Z,80.80
2022-09-23T23:02:02.985Z,79.45
2022-09-23T23:04:30.173Z,79.65
2022-09-23T23:06:58.820Z,79.63
2022-09-23T23:09:25.753Z,79.72
2022-09-23T23:11:52.255Z,79.76
2022-09-23T23:14:19.150Z,79.45
2022-09-23T23:16:46.570Z,79.73
2022-09-23T23:19:19.185Z,79.84
2022-09-23T23:21:46.029Z,80.12
2022-09-23T23:24:18.446Z,80.29
2022-09-23T23:26:45.887Z,80.04
2022-09-23T23:29:14.534Z,80.23
2022-09-23T23:31:41.199Z,80.65
2022-09-23T23:34:11.895Z,80.70
2022-09-23T23:36:39.449Z,80.75
2022-09-23T23:39:06.339Z,80.95
2022-09-23T23:41:33.274Z,80.78
2022-09-23T23:44:01.371Z,80.53
2022-09-23T23:46:30.072Z,80.88
2022-09-23T23:48:57.668Z,81.23
2022-09-23T23:51:26.479Z,80.92
2022-09-23T23:53:54.143Z,81.00
2022-09-23T23:56:22.712Z,80.90
2022-09-23T23:58:54.897Z,81.38
